Rockwell, NC (28138)

7:44 AM EST on December 06, 2016 (GMT -0500)
RockGrove | | Change Station

Elev 856 ft 35.55 °N, 80.48 °W | Updated 7 minutes ago

Rain
Rain Mist
43.1 °F
Feels Like 36 °F
N
13.0
Wind Variable Wind from East
Gusts 15.0 mph

Today
High -- | Low -- °F
--% Chance of Precip.
Yesterday
High -- | Low -- °F
Precip. -- in
Pressure 29.94 in
Visibility 2.0 miles
Clouds Overcast 600 ft
Windchill 36 °F
Dew Point 42 °F
Humidity 95%
Rainfall 0.15 in
Snow Depth Not available.
7:17 AM 5:08 PM
Waxing Crescent, 41% visible
METAR KJQF 061150Z 05008KT 2SM RA BR OVC006 07/07 A2994
Pressure 29.94 in
Visibility 2.0 miles
Clouds Overcast 600 ft
Windchill 36 °F
Dew Point 42 °F
Humidity 95%
Rainfall 0.15 in
Snow Depth Not available.
7:17 AM 5:08 PM
Waxing Crescent, 41% visible
METAR KJQF 061150Z 05008KT 2SM RA BR OVC006 07/07 A2994

10-Day Weather Forecast

Almanac

Astronomy

Dec. 06, 2016 Rise Set
Actual Time
Civil Twilight
Nautical Twilight
Astronomical Twilight
Moon
Length of Visible Light
Length of Day
Tomorrow will be .
, % of the Moon is Illuminated

Today's Extremes

State Highs State Lows

Community

WunderPhotos

Upload Photos

1,955,938 photos uploaded!

WunderBlog® & News

Nearby

Air Quality

  Air Quality AQ Index Pollutant
Not available.

Snow Depth

Station Depth Elevation

Earthquake Activity

City Distance Mag. Time & Date
Minimum magnitude displayed is 2.5.

Coastal Water Temperatures

Place Temperature

Stations

Nearby Weather Stations

Station Location Temp. Windchill Dew Point Humidity Wind Precip. Elev Updated Type
                   

Watches & Warnings

There are currently no watches in effect.